Site contains unofficial IBTrACS data. Visit the IBTrACS Website to access archived data.

1859 Hurricane NOT_NAMED (1859172N18275)


IBTrACS version v04r00. Visit IBTrACS website for data access.
Please direct all questions to the IBTrACS Q and A forum

Storm track - Intensity - Wind Radii - Intensity Data - Source Data - All data

Summary Information

Storm ID 1859172N18275
Start Jun 20 12Z
Landfall Jun 21 21Z, Jun 22 06Z, Jun 27 06Z
Max Intensity 80 kt (Jun 26 06Z), 990 mb (Jun 25 18Z)
End Jun 27 18Z
ATCF IDs
Track status Best track data.

Storm track plot

Map of storm track

Intensity plots

Map of storm track

Radial wind information

No radial wind information for this storm


Position and Intensity Table

BASIN ISO_TIME_________ NATURE LAT LON MLC WIND MLC PRES
degrees north degrees east kts mb
NA 1859-06-20 12:00:00 NR 18.00 -85.40 25
NA 15:00:00 NR 18.05 -85.66 25
NA 18:00:00 TS 18.10 -85.90 25
NA 21:00:00 TS 18.15 -86.11 27
NA 1859-06-21 00:00:00 TS 18.20 -86.30 30
NA 03:00:00 TS 18.25 -86.50 32
NA 06:00:00 TS 18.30 -86.70 35
NA 09:00:00 TS 18.35 -86.90 37
NA 12:00:00 TS 18.40 -87.10 40
NA 15:00:00 TS 18.45 -87.29 37
NA 18:00:00 TS 18.50 -87.50 35
NA 21:00:00 TS 18.55 -87.75 35
NA 1859-06-22 00:00:00 TS 18.60 -88.00 35
NA 03:00:00 TS 18.65 -88.21 32
NA 06:00:00 TS 18.70 -88.40 30
NA 09:00:00 TS 18.75 -88.60 30
NA 12:00:00 TS 18.80 -88.80 30
NA 15:00:00 TS 18.85 -88.99 30
NA 18:00:00 TS 18.90 -89.20 30
NA 21:00:00 TS 18.95 -89.44 30
NA 1859-06-23 00:00:00 TS 19.00 -89.70 30
NA 03:00:00 TS 19.05 -89.96 30
NA 06:00:00 TS 19.10 -90.20 30
NA 09:00:00 TS 19.15 -90.41 30
NA 12:00:00 TS 19.20 -90.60 30
NA 15:00:00 TS 19.25 -90.81 30
NA 18:00:00 TS 19.30 -91.00 30
NA 21:00:00 TS 19.34 -91.14 30
NA 1859-06-24 00:00:00 TS 19.40 -91.30 30
NA 03:00:00 TS 19.50 -91.53 32
NA 06:00:00 TS 19.60 -91.80 35
NA 09:00:00 TS 19.65 -92.06 37
NA 12:00:00 TS 19.70 -92.30 40
NA 15:00:00 TS 19.79 -92.50 45
NA 18:00:00 TS 19.90 -92.70 50
NA 21:00:00 TS 20.00 -92.95 52
NA 1859-06-25 00:00:00 TS 20.10 -93.20 55
NA 03:00:00 TS 20.21 -93.41 57
NA 06:00:00 TS 20.30 -93.60 60
NA 09:00:00 TS 20.35 -93.80 62
NA 12:00:00 TS 20.40 -94.00 65
NA 15:00:00 TS 20.49 -94.19 67
NA 18:00:00 TS 20.60 -94.40 70 990
NA 21:00:00 TS 20.70 -94.65 72
NA 1859-06-26 00:00:00 TS 20.80 -94.90 75
NA 03:00:00 TS 20.90 -95.10 77
NA 06:00:00 TS 21.00 -95.30 80
NA 09:00:00 TS 21.10 -95.54 80
NA 12:00:00 TS 21.20 -95.80 80
NA 15:00:00 TS 21.32 -96.10 80
NA 18:00:00 TS 21.40 -96.40 80
NA 21:00:00 TS 21.39 -96.65 80
NA 1859-06-27 00:00:00 TS 21.30 -96.90 80
NA 03:00:00 TS 21.13 -97.21 77
NA 06:00:00 TS 20.90 -97.50 75
NA 09:00:00 TS 20.66 -97.70 62
NA 12:00:00 TS 20.40 -97.90 50
NA 15:00:00 TS 20.11 -98.18 40
NA 18:00:00 TS 19.80 -98.50 30

Source Information

Agency Information
USA
TOKYO
CMA
HKO
NEWDELHI
REUNION
BOM
NADI
WELLINGTON
DS824
TD9636
TD9635
NEUMANN
MLC

All available IBTrACS Data

SEASON BASIN SUBBASIN ISO_TIME_________ NATURE LAT LON DIST2LAND LANDFALL IFLAG USA SSHS MLC LAT MLC LON MLC CLASS MLC WIND MLC PRES STORM SPEED STORM DIR
Year degrees north degrees east km km 1 degrees north degrees east kts mb kts degrees
1859 NA CS 1859-06-20 12:00:00 NR 18.00 -85.40 235 231 _____________O -1 18.00 -85.40 25 5 281
1859 NA CS 15:00:00 NR 18.05 -85.66 218 198 _____________P -1 18.05 -85.66 25 5 282
1859 NA CS 18:00:00 TS 18.10 -85.90 198 177 _____________O -1 18.10 -85.90 TD 25 4 283
1859 NA CS 21:00:00 TS 18.15 -86.11 177 154 _____________P -1 18.15 -86.11 TD 27 4 285
1859 NA CS 1859-06-21 00:00:00 TS 18.20 -86.30 154 134 _____________O -1 18.20 -86.30 TD 30 4 285
1859 NA CS 03:00:00 TS 18.25 -86.50 134 110 _____________P -1 18.25 -86.50 TD 32 4 285
1859 NA CS 06:00:00 TS 18.30 -86.70 110 90 _____________O -1 18.30 -86.70 TS 35 4 285
1859 NA CS 09:00:00 TS 18.35 -86.90 90 67 _____________P -1 18.35 -86.90 TS 37 4 285
1859 NA CS 12:00:00 TS 18.40 -87.10 67 47 _____________O -1 18.40 -87.10 TS 40 4 285
1859 NA CS 15:00:00 TS 18.45 -87.29 47 23 _____________P -1 18.45 -87.29 TS 37 4 285
1859 NA CS 18:00:00 TS 18.50 -87.50 23 10 _____________O -1 18.50 -87.50 TS 35 4 283
1859 NA CS 21:00:00 TS 18.55 -87.75 0 0 _____________P -1 18.55 -87.75 TS 35 5 282
1859 NA NA 1859-06-22 00:00:00 TS 18.60 -88.00 0 0 _____________O -1 18.60 -88.00 TS 35 4 283
1859 NA CS 03:00:00 TS 18.65 -88.21 10 0 _____________P -1 18.65 -88.21 TS 32 4 285
1859 NA NA 06:00:00 TS 18.70 -88.40 0 0 _____________O -1 18.70 -88.40 TD 30 4 285
1859 NA NA 09:00:00 TS 18.75 -88.60 0 0 _____________P -1 18.75 -88.60 TD 30 4 285
1859 NA NA 12:00:00 TS 18.80 -88.80 0 0 _____________O -1 18.80 -88.80 TD 30 4 285
1859 NA NA 15:00:00 TS 18.85 -88.99 0 0 _____________P -1 18.85 -88.99 TD 30 4 285
1859 NA NA 18:00:00 TS 18.90 -89.20 0 0 _____________O -1 18.90 -89.20 TD 30 4 283
1859 NA NA 21:00:00 TS 18.95 -89.44 0 0 _____________P -1 18.95 -89.44 TD 30 5 282
1859 NA NA 1859-06-23 00:00:00 TS 19.00 -89.70 0 0 _____________O -1 19.00 -89.70 TD 30 5 282
1859 NA NA 03:00:00 TS 19.05 -89.96 0 0 _____________P -1 19.05 -89.96 TD 30 5 282
1859 NA NA 06:00:00 TS 19.10 -90.20 0 0 _____________O -1 19.10 -90.20 TD 30 4 283
1859 NA NA 09:00:00 TS 19.15 -90.41 0 0 _____________P -1 19.15 -90.41 TD 30 4 285
1859 NA NA 12:00:00 TS 19.20 -90.60 0 0 _____________O -1 19.20 -90.60 TD 30 4 285
1859 NA NA 15:00:00 TS 19.25 -90.81 0 0 _____________P -1 19.25 -90.81 TD 30 4 285
1859 NA GM 18:00:00 TS 19.30 -91.00 11 11 _____________O -1 19.30 -91.00 TD 30 3 286
1859 NA GM 21:00:00 TS 19.34 -91.14 15 15 _____________P -1 19.34 -91.14 TD 30 3 290
1859 NA GM 1859-06-24 00:00:00 TS 19.40 -91.30 38 38 _____________O -1 19.40 -91.30 TD 30 4 293
1859 NA GM 03:00:00 TS 19.50 -91.53 59 59 _____________P -1 19.50 -91.53 TD 32 5 293
1859 NA GM 06:00:00 TS 19.60 -91.80 84 84 _____________O -1 19.60 -91.80 TS 35 5 287
1859 NA GM 09:00:00 TS 19.65 -92.06 109 100 _____________P -1 19.65 -92.06 TS 37 5 282
1859 NA GM 12:00:00 TS 19.70 -92.30 122 122 _____________O -1 19.70 -92.30 TS 40 4 289
1859 NA GM 15:00:00 TS 19.79 -92.50 134 134 _____________P -1 19.79 -92.50 TS 45 4 298
1859 NA GM 18:00:00 TS 19.90 -92.70 145 145 _____________O -1 19.90 -92.70 TS 50 5 296
1859 NA GM 21:00:00 TS 20.00 -92.95 159 159 _____________P -1 20.00 -92.95 TS 52 5 293
1859 NA GM 1859-06-25 00:00:00 TS 20.10 -93.20 175 175 _____________O -1 20.10 -93.20 TS 55 5 296
1859 NA GM 03:00:00 TS 20.21 -93.41 193 193 _____________P -1 20.21 -93.41 TS 57 4 298
1859 NA GM 06:00:00 TS 20.30 -93.60 212 212 _____________O -1 20.30 -93.60 TS 60 4 291
1859 NA GM 09:00:00 TS 20.35 -93.80 222 222 _____________P -1 20.35 -93.80 TS 62 4 285
1859 NA GM 12:00:00 TS 20.40 -94.00 226 222 _____________O -1 20.40 -94.00 HU 65 4 291
1859 NA GM 15:00:00 TS 20.49 -94.19 226 222 _____________P -1 20.49 -94.19 HU 67 4 298
1859 NA GM 18:00:00 TS 20.60 -94.40 222 207 _____________O -1 20.60 -94.40 HU 70 990 5 296
1859 NA GM 21:00:00 TS 20.70 -94.65 198 185 _____________P -1 20.70 -94.65 HU 72 5 293
1859 NA GM 1859-06-26 00:00:00 TS 20.80 -94.90 185 175 _____________O -1 20.80 -94.90 HU 75 5 295
1859 NA GM 03:00:00 TS 20.90 -95.10 175 167 _____________P -1 20.90 -95.10 HU 77 4 298
1859 NA GM 06:00:00 TS 21.00 -95.30 167 160 _____________O -1 21.00 -95.30 HU 80 5 296
1859 NA GM 09:00:00 TS 21.10 -95.54 160 144 _____________P -1 21.10 -95.54 HU 80 5 293
1859 NA GM 12:00:00 TS 21.20 -95.80 144 128 _____________O -1 21.20 -95.80 HU 80 6 293
1859 NA GM 15:00:00 TS 21.32 -96.10 128 95 _____________P -1 21.32 -96.10 HU 80 6 290
1859 NA GM 18:00:00 TS 21.40 -96.40 95 75 _____________O -1 21.40 -96.40 HU 80 5 278
1859 NA GM 21:00:00 TS 21.39 -96.65 75 51 _____________P -1 21.39 -96.65 HU 80 5 258
1859 NA GM 1859-06-27 00:00:00 TS 21.30 -96.90 51 20 _____________O -1 21.30 -96.90 HU 80 6 243
1859 NA GM 03:00:00 TS 21.13 -97.21 20 0 _____________P -1 21.13 -97.21 HU 77 7 234
1859 NA NA 06:00:00 TS 20.90 -97.50 0 0 _____________O -1 20.90 -97.50 HU 75 7 225
1859 NA NA 09:00:00 TS 20.66 -97.70 0 0 _____________P -1 20.66 -97.70 HU 62 6 217
1859 NA NA 12:00:00 TS 20.40 -97.90 0 0 _____________O -1 20.40 -97.90 TS 50 7 219
1859 NA NA 15:00:00 TS 20.11 -98.18 0 0 _____________P -1 20.11 -98.18 TS 40 8 223
1859 NA NA 18:00:00 TS 19.80 -98.50 0 _____________O -1 19.80 -98.50 TD 30 9 225